createdAt,value
2023-05-09T00:04:56.992Z,19.76
2023-05-09T00:15:30.534Z,19.76
2023-05-09T00:20:34.194Z,19.71
2023-05-09T00:25:36.177Z,19.67
2023-05-09T00:30:38.164Z,19.64
2023-05-09T00:35:40.482Z,19.60
2023-05-09T00:40:42.692Z,19.56
2023-05-09T00:45:45.887Z,19.53
2023-05-09T00:50:52.811Z,19.48
2023-05-09T00:55:56.929Z,19.45
2023-05-09T01:05:14.129Z,19.39
2023-05-09T01:11:36.606Z,19.35
2023-05-09T01:16:56.471Z,19.31
2023-05-09T01:22:01.053Z,19.26
2023-05-09T01:27:09.196Z,19.23
2023-05-09T01:32:15.710Z,19.18
2023-05-09T01:37:20.695Z,19.14
2023-05-09T01:42:26.135Z,19.08
2023-05-09T01:51:55.251Z,19.02
2023-05-09T01:57:29.473Z,18.98
2023-05-09T02:02:36.382Z,18.94
2023-05-09T02:07:41.817Z,18.90
2023-05-09T02:16:54.245Z,18.81
2023-05-09T02:21:56.571Z,18.77
2023-05-09T02:26:58.944Z,18.74
2023-05-09T02:32:03.131Z,18.69
2023-05-09T02:37:09.380Z,18.67
2023-05-09T02:42:18.060Z,18.64
2023-05-09T02:49:32.040Z,18.58
2023-05-09T02:54:35.562Z,18.55
2023-05-09T02:59:37.726Z,18.50
2023-05-09T03:04:39.763Z,18.45
2023-05-09T03:09:42.233Z,18.39
2023-05-09T03:14:44.300Z,18.35
2023-05-09T03:19:46.500Z,18.31
2023-05-09T03:24:48.719Z,18.29
2023-05-09T03:29:50.657Z,18.26
2023-05-09T03:34:54.882Z,18.25
2023-05-09T03:39:56.924Z,18.23
2023-05-09T03:44:59.451Z,18.20
2023-05-09T03:50:03.851Z,18.18
2023-05-09T03:55:07.329Z,18.15
2023-05-09T04:05:45.276Z,18.08
2023-05-09T04:10:55.957Z,18.06
2023-05-09T04:15:59.517Z,18.04
2023-05-09T04:21:04.964Z,18.03
2023-05-09T04:26:07.483Z,18.01
2023-05-09T04:31:10.162Z,18.00
2023-05-09T04:36:12.738Z,17.98
2023-05-09T04:41:15.118Z,17.94
2023-05-09T04:46:17.598Z,17.92
2023-05-09T04:51:19.834Z,17.90
2023-05-09T04:56:22.781Z,17.92
2023-05-09T05:01:26.782Z,17.92
2023-05-09T05:06:30.150Z,17.94
2023-05-09T05:11:33.577Z,17.99
2023-05-09T05:16:36.319Z,18.05
2023-05-09T05:21:39.025Z,18.10
2023-05-09T05:26:41.645Z,18.15
2023-05-09T05:31:44.953Z,18.19
2023-05-09T05:36:47.779Z,18.25
2023-05-09T05:41:52.010Z,18.30
2023-05-09T05:46:54.894Z,18.35
2023-05-09T05:51:57.596Z,18.37
2023-05-09T05:57:01.285Z,18.38
2023-05-09T06:02:06.014Z,18.42
2023-05-09T06:07:11.042Z,18.47
2023-05-09T06:12:16.643Z,18.54
2023-05-09T06:20:46.732Z,18.70
2023-05-09T06:26:38.106Z,18.84
2023-05-09T06:31:41.057Z,18.93
2023-05-09T06:36:43.203Z,19.06
2023-05-09T06:41:45.344Z,19.23
2023-05-09T06:46:54.446Z,19.35
2023-05-09T06:51:56.446Z,19.54
2023-05-09T06:56:59.526Z,19.79
2023-05-09T07:02:01.765Z,20.03
2023-05-09T07:07:03.878Z,20.35
2023-05-09T07:12:06.293Z,20.67
2023-05-09T07:17:22.126Z,20.93
2023-05-09T07:22:25.204Z,21.21
2023-05-09T07:27:27.171Z,21.47
2023-05-09T07:32:33.165Z,21.64
2023-05-09T07:37:37.349Z,21.69
2023-05-09T07:42:39.914Z,21.80
2023-05-09T07:47:42.058Z,21.93
2023-05-09T07:52:44.428Z,22.12
2023-05-09T07:57:46.754Z,22.35
2023-05-09T08:02:54.130Z,22.63
2023-05-09T08:07:56.359Z,22.88
2023-05-09T08:13:02.987Z,23.07
2023-05-09T08:18:06.715Z,23.14
2023-05-09T08:23:09.184Z,23.11
2023-05-09T08:28:11.615Z,23.10
2023-05-09T08:33:13.722Z,23.13
2023-05-09T08:38:15.919Z,23.03
2023-05-09T08:43:24.480Z,22.75
2023-05-09T08:48:38.563Z,22.48
2023-05-09T08:53:41.124Z,22.23
2023-05-09T08:58:43.283Z,22.10
2023-05-09T09:03:49.486Z,22.15
2023-05-09T09:08:55.032Z,22.12
2023-05-09T09:14:27.775Z,22.13
2023-05-09T09:19:31.685Z,22.09
2023-05-09T09:24:34.713Z,22.09
2023-05-09T09:29:38.777Z,22.18
2023-05-09T09:34:40.882Z,22.15
2023-05-09T09:39:55.006Z,22.06
2023-05-09T09:45:18.481Z,22.01
2023-05-09T09:50:25.571Z,22.17
2023-05-09T09:55:34.842Z,22.46
2023-05-09T10:00:37.064Z,22.43
2023-05-09T10:05:41.305Z,22.63
2023-05-09T10:10:43.708Z,22.68
2023-05-09T10:15:53.708Z,22.58
2023-05-09T10:20:57.219Z,22.64
2023-05-09T10:26:32.046Z,22.40
2023-05-09T10:31:37.159Z,22.18
2023-05-09T10:36:39.370Z,22.27
2023-05-09T10:41:47.521Z,22.40
2023-05-09T10:46:58.305Z,22.49
2023-05-09T10:52:04.332Z,22.34
2023-05-09T10:57:09.769Z,22.29
2023-05-09T11:02:14.075Z,22.39
2023-05-09T11:07:26.944Z,22.33
2023-05-09T11:12:28.876Z,22.19
2023-05-09T11:17:50.958Z,22.15
2023-05-09T11:22:53.579Z,22.02
2023-05-09T11:28:01.434Z,22.24
2023-05-09T11:33:06.861Z,22.00
2023-05-09T11:38:09.535Z,21.99
2023-05-09T11:43:13.166Z,22.09
2023-05-09T11:48:15.174Z,22.09
2023-05-09T11:53:17.272Z,21.92
2023-05-09T11:58:20.227Z,21.99
2023-05-09T12:03:22.563Z,22.02
2023-05-09T12:08:25.276Z,22.13
2023-05-09T12:13:27.407Z,22.21
2023-05-09T12:18:30.917Z,22.54
2023-05-09T12:23:36.295Z,22.74
2023-05-09T12:28:42.507Z,22.76
2023-05-09T12:33:45.102Z,22.78
2023-05-09T12:38:56.885Z,22.73
2023-05-09T12:43:59.096Z,22.58
2023-05-09T12:49:01.113Z,22.51
2023-05-09T12:54:05.029Z,22.66
2023-05-09T12:59:11.442Z,22.87
2023-05-09T13:04:19.894Z,22.84
2023-05-09T13:09:23.659Z,22.56
2023-05-09T13:14:26.361Z,22.49
2023-05-09T13:19:28.709Z,22.38
2023-05-09T13:24:30.797Z,22.27
2023-05-09T13:29:33.142Z,22.19
2023-05-09T13:34:35.493Z,22.18
2023-05-09T13:39:37.537Z,22.21
2023-05-09T13:44:39.611Z,22.12
2023-05-09T13:49:41.590Z,22.14
2023-05-09T13:54:44.260Z,22.37
2023-05-09T13:59:46.312Z,22.38
2023-05-09T14:04:48.552Z,22.23
2023-05-09T14:09:56.188Z,22.24
2023-05-09T14:15:01.537Z,22.20
2023-05-09T14:20:04.035Z,22.10
2023-05-09T14:25:06.567Z,21.99
2023-05-09T14:30:09.417Z,22.10
2023-05-09T14:35:11.851Z,22.22
2023-05-09T14:40:14.691Z,22.16
2023-05-09T14:45:17.440Z,22.16
2023-05-09T14:50:20.664Z,22.31
2023-05-09T14:55:23.271Z,22.30
2023-05-09T15:00:28.724Z,22.27
2023-05-09T15:05:31.275Z,22.35
2023-05-09T15:10:34.222Z,22.34
2023-05-09T15:20:37.949Z,22.12
2023-05-09T15:25:43.534Z,22.04
2023-05-09T15:30:46.120Z,22.03
2023-05-09T15:35:50.306Z,22.03
2023-05-09T15:40:57.692Z,21.97
2023-05-09T15:46:02.620Z,21.91
2023-05-09T15:51:05.311Z,21.74
2023-05-09T15:56:16.480Z,21.52
2023-05-09T16:01:19.172Z,21.37
2023-05-09T16:06:21.406Z,21.22
2023-05-09T16:11:29.064Z,21.13
2023-05-09T16:16:40.308Z,21.12
2023-05-09T16:21:45.706Z,21.11
2023-05-09T16:26:51.883Z,21.12
2023-05-09T16:31:53.986Z,21.10
2023-05-09T16:36:56.592Z,21.06
2023-05-09T16:41:59.649Z,21.07
2023-05-09T16:47:06.325Z,21.03
2023-05-09T16:52:08.440Z,20.97
2023-05-09T16:57:10.930Z,20.94
2023-05-09T17:02:13.560Z,20.92
2023-05-09T17:07:23.767Z,20.91
2023-05-09T17:12:36.164Z,20.93
2023-05-09T17:17:41.677Z,20.96
2023-05-09T17:22:43.713Z,20.97
2023-05-09T17:27:46.150Z,21.02
2023-05-09T17:32:56.825Z,21.09
2023-05-09T17:37:58.732Z,20.99
2023-05-09T17:43:00.771Z,21.05
2023-05-09T17:48:03.654Z,21.10
2023-05-09T17:53:08.810Z,21.08
2023-05-09T17:58:11.603Z,21.02
2023-05-09T18:03:13.723Z,21.02
2023-05-09T18:08:17.175Z,21.01
2023-05-09T18:13:19.279Z,20.94
2023-05-09T18:22:48.762Z,20.74
2023-05-09T18:27:51.123Z,20.74
2023-05-09T18:32:53.776Z,20.72
2023-05-09T18:37:55.944Z,20.72
2023-05-09T18:42:58.540Z,20.76
2023-05-09T18:48:04.181Z,20.77
2023-05-09T18:53:06.243Z,20.74
2023-05-09T18:58:14.155Z,20.72
2023-05-09T19:03:17.653Z,20.69
2023-05-09T19:08:19.942Z,20.65
2023-05-09T19:13:22.875Z,20.47
2023-05-09T19:18:28.365Z,20.40
2023-05-09T19:23:30.957Z,20.38
2023-05-09T19:28:34.870Z,20.35
2023-05-09T19:33:38.303Z,20.27
2023-05-09T19:38:40.863Z,20.24
2023-05-09T19:43:43.175Z,20.20
2023-05-09T19:48:45.649Z,20.19
2023-05-09T19:53:49.133Z,20.22
2023-05-09T19:58:51.334Z,20.13
2023-05-09T20:03:53.935Z,20.03
2023-05-09T20:09:00.110Z,19.97
2023-05-09T20:14:02.528Z,19.90
2023-05-09T20:19:07.591Z,19.88
2023-05-09T20:24:09.903Z,19.79
2023-05-09T20:29:11.987Z,19.76
2023-05-09T20:34:17.867Z,19.72
2023-05-09T20:39:21.234Z,19.62
2023-05-09T20:44:23.380Z,19.65
2023-05-09T20:49:25.937Z,19.63
2023-05-09T20:54:29.121Z,19.65
2023-05-09T20:59:31.309Z,19.66
2023-05-09T21:04:33.446Z,19.71
2023-05-09T21:09:36.155Z,19.80
2023-05-09T21:14:38.215Z,19.87
2023-05-09T21:19:40.420Z,19.92
2023-05-09T21:24:42.593Z,19.98
2023-05-09T21:29:49.278Z,20.00
2023-05-09T21:34:51.304Z,19.99
2023-05-09T21:39:53.467Z,20.01
2023-05-09T21:44:55.550Z,20.04
2023-05-09T21:49:57.818Z,20.02
2023-05-09T21:54:59.817Z,20.01
2023-05-09T22:00:04.912Z,20.02
2023-05-09T22:05:15.010Z,20.06
2023-05-09T22:10:17.519Z,20.02
2023-05-09T22:15:19.774Z,19.96
2023-05-09T22:20:22.138Z,19.94
2023-05-09T22:25:29.314Z,19.93
2023-05-09T22:30:31.425Z,19.91
2023-05-09T22:35:33.550Z,19.91
2023-05-09T22:40:35.912Z,19.92
2023-05-09T22:46:06.253Z,19.84
2023-05-09T22:51:08.625Z,19.75
2023-05-09T22:56:11.517Z,19.73
2023-05-09T23:01:13.737Z,19.74
2023-05-09T23:06:17.347Z,19.75
2023-05-09T23:11:20.450Z,19.76
2023-05-09T23:16:22.845Z,19.73
2023-05-09T23:21:25.125Z,19.79
2023-05-09T23:26:27.387Z,19.80
2023-05-09T23:31:29.495Z,19.84
2023-05-09T23:36:31.705Z,19.86
2023-05-09T23:41:33.752Z,19.88
2023-05-09T23:46:35.778Z,19.89
2023-05-09T23:51:37.768Z,19.87
2023-05-09T23:56:40.075Z,19.88
